Andrus Island, California
Current Conditions -  °F | °C
As of 2:58 PM on Friday 31 Oct 2014 (Local Time) from KSUU Reporting Station
Moderate Rain Moderate Rain  
Wind Chill: 58°   Ceiling: Unl
Heat Index: 58°   Visibility: 10mi
Dew Point: 58°   Wind: 8mph
Humidity: 100%   Direction: 190°S
Pressure: 29.78"   Gusts: NA
Location:  38.1457°N, 121.624°W
Report Text: KSUU 312158Z AUTO 19007KT 10SM RA SCT035 14/14 A2978 RMK AO2 SLP091 P0005 T01440144 $
Loading
Personal Weather Stations






























Interactive Weather Map
Tropical Storm Tracking
New forecast layout! Learn more

10-Day Weather Forecast

Advertisements
Track Severe Weather on mobile